Terminal Aerodrome Forecast
Issued by NWS Shreveport, LA

Home | Current Version | Previous Version | Text Only | Print | Product List | Glossary On
Versions: 1 2 3 4 5 6 7 8 9 10 11 12
000
FTUS44 KSHV 291145
TAFGGG
TAF
KGGG 291145Z 2912/3012 20006KT P6SM BKN150
     FM291800 19006KT P6SM BKN100
     FM300200 18006KT P6SM BKN150=

USA.gov is the U.S. government's official web portal to all federal, state and local government web resources and services.